Terminal Aerodrome Forecast
Issued by NWS North Platte, NE

Home | Current Version | Previous Version | Text Only | Print | Product List | Glossary On
Versions: 1 2 3 4 5 6 7 8 9 10 11 12 13 14 15 16 17 18 19 20 21 22 23
195
FTUS43 KLBF 222320
TAFLBF
TAF
KLBF 222320Z 2300/2324 VRB03KT P6SM SCT150
     FM231700 16009KT P6SM BKN150
     FM231900 17013G20KT P6SM BKN150
     FM232300 14009KT P6SM BKN150=

USA.gov is the U.S. government's official web portal to all federal, state and local government web resources and services.